Sunday, October 21, 2018, 10:23 PM EDT
Back to Local

K12N, Aeroflex-andover Airport

Location: Newton, NJ, United States Lat: 41.017
Local Time: 10:23 PM EDT ( 2:23 GMT) Lon: -74.733
Time Zone: US/Eastern Elev: 583 ft

Show me the last for .
Show Decoded

2018-10-21 21:54 METAR K12N 220154Z AUTO 19003KT 00/M02 A3016 RMK AO1 SLP220 T00001022 =
2018-10-21 20:54 METAR K12N 220054Z AUTO 35003KT 01/M03 A3014 RMK AO1 SLP214 T00061033 =
2018-10-21 19:54 METAR K12N 212354Z AUTO 34003KT 03/M05 A3012 RMK AO1 SLP207 T00331050 10067
                 20017 53023 =
2018-10-21 18:54 METAR K12N 212254Z AUTO 00000KT 03/M04 A3010 RMK AO1 SLP198 T00331044 =
2018-10-21 17:54 METAR K12N 212154Z AUTO 34004KT 04/M05 A3007 RMK AO1 SLP189 T00441050 =
2018-10-21 16:54 METAR K12N 212054Z AUTO 34008G18KT 06/M06 A3005 RMK AO1 SLP182 T00561061 53014 =
2018-10-21 15:54 METAR K12N 211954Z AUTO 35009G17KT 320V030 06/M05 A3003 RMK AO1 SLP173 T00611050
                 =
2018-10-21 14:54 METAR K12N 211854Z AUTO 36009G23KT 320V060 06/M06 A3001 RMK AO1 PK WND
                 35031/1841 SLP169 T00611056 =
2018-10-21 13:54 METAR K12N 211754Z AUTO 34007G17KT 290V060 06/M04 A3001 RMK AO1 PK WND
                 31026/1658 SLP167 T00561039 10056 20044 51013 =
2018-10-21 12:54 METAR K12N 211654Z AUTO 31007G17KT 260V350 05/M03 A3000 RMK AO1 SLP163 T00501033
                 =
2018-10-21 11:54 METAR K12N 211554Z AUTO 29003KT 05/M03 A2999 RMK AO1 SLP162 T00501028 =
2018-10-21 10:54 METAR K12N 211454Z AUTO VRB06G17KT 06/M03 A2997 RMK AO1 SLP153 T00561033 51034 =
2018-10-21 09:54 METAR K12N 211354Z AUTO 35009G23KT 06/M02 A2995 RMK AO1 SLP147 T00561022 =
2018-10-21 08:54 METAR K12N 211254Z AUTO 01008G23KT 330V070 05/M03 A2991 RMK AO1 PK WND
                 36029/1238 SLP134 T00501028 =
2018-10-21 07:54 METAR K12N 211154Z AUTO 35010G19KT 05/M02 A2987 RMK AO1 SLP119 70012 T00501017
                 10072 20050 53052 =
2018-10-21 06:54 METAR K12N 211054Z AUTO VRB06G16KT 06/01 A2982 RMK AO1 PRESRR SLP103 T00610006 =
2018-10-21 05:54 METAR K12N 210954Z AUTO 34006KT 07/03 A2975 RMK AO1 SLP075 T00720028 =
2018-10-21 04:54 METAR K12N 210854Z AUTO VRB04KT 07/03 A2971 RMK AO1 SLP062 T00670033 51027 =
2018-10-21 03:54 METAR K12N 210754Z AUTO VRB05KT 07/04 A2968 RMK AO1 SLP051 T00670039 =
2018-10-21 02:54 METAR K12N 210654Z AUTO VRB03KT 07/04 A2967 RMK AO1 SLP047 T00670044 =
2018-10-21 01:54 METAR K12N 210554Z AUTO VRB04KT 07/06 A2963 RMK AO1 SLP034 60012 T00720056 10100
                 20072 55007 =
2018-10-21 00:54 METAR K12N 210454Z AUTO 04007KT 08/07 A2962 RMK AO1 PRESFR SLP032 P0007
                 T00780067 401670078 =
2018-10-20 23:54 METAR K12N 210354Z AUTO 19003KT 08/07 A2965 RMK AO1 SLP041 T00830067 =
2018-10-20 22:54 METAR K12N 210254Z AUTO 00000KT 08/07 A2965 RMK AO1 SLP043 P0005 60005 T00830067
                 53005 =

Support USWX by starting your Amazon purchase here.